sensor_id;sensor_type;location;lat;lon;timestamp;temperature;humidity
65235;DHT22;51820;48.374;10.930;2022-11-06T00:03:09;6.40;90.40
65235;DHT22;51820;48.374;10.930;2022-11-06T00:05:39;6.00;90.50
65235;DHT22;51820;48.374;10.930;2022-11-06T00:08:30;7.70;76.90
65235;DHT22;51820;48.374;10.930;2022-11-06T00:11:00;7.60;76.70
65235;DHT22;51820;48.374;10.930;2022-11-06T00:16:01;6.30;90.40
65235;DHT22;51820;48.374;10.930;2022-11-06T00:18:30;11.10;91.50
65235;DHT22;51820;48.374;10.930;2022-11-06T00:24:01;7.40;76.70
65235;DHT22;51820;48.374;10.930;2022-11-06T00:26:32;5.00;89.50
65235;DHT22;51820;48.374;10.930;2022-11-06T00:29:01;6.70;90.20
65235;DHT22;51820;48.374;10.930;2022-11-06T00:31:31;7.30;76.90
65235;DHT22;51820;48.374;10.930;2022-11-06T00:34:01;7.30;76.70
65235;DHT22;51820;48.374;10.930;2022-11-06T00:38:59;5.20;90.00
65235;DHT22;51820;48.374;10.930;2022-11-06T00:41:27;7.30;76.70
65235;DHT22;51820;48.374;10.930;2022-11-06T00:43:59;7.30;76.60
65235;DHT22;51820;48.374;10.930;2022-11-06T00:48:56;5.60;81.20
65235;DHT22;51820;48.374;10.930;2022-11-06T00:51:26;7.20;76.70
65235;DHT22;51820;48.374;10.930;2022-11-06T00:53:55;6.90;90.60
65235;DHT22;51820;48.374;10.930;2022-11-06T00:56:24;7.20;77.10
65235;DHT22;51820;48.374;10.930;2022-11-06T01:01:24;7.20;76.40
65235;DHT22;51820;48.374;10.930;2022-11-06T01:03:55;6.20;90.20
65235;DHT22;51820;48.374;10.930;2022-11-06T01:06:26;6.70;90.40
65235;DHT22;51820;48.374;10.930;2022-11-06T01:11:25;11.10;91.60
65235;DHT22;51820;48.374;10.930;2022-11-06T01:13:59;7.10;76.80
65235;DHT22;51820;48.374;10.930;2022-11-06T01:16:28;7.10;76.60
65235;DHT22;51820;48.374;10.930;2022-11-06T01:21:32;7.10;76.70
65235;DHT22;51820;48.374;10.930;2022-11-06T01:24:25;7.00;76.70
65235;DHT22;51820;48.374;10.930;2022-11-06T01:27:00;10.70;91.50
65235;DHT22;51820;48.374;10.930;2022-11-06T01:32:19;6.90;77.00
65235;DHT22;51820;48.374;10.930;2022-11-06T01:34:48;6.80;77.30
65235;DHT22;51820;48.374;10.930;2022-11-06T01:37:16;7.40;91.20
65235;DHT22;51820;48.374;10.930;2022-11-06T01:39:48;6.80;77.30
65235;DHT22;51820;48.374;10.930;2022-11-06T01:42:19;10.20;80.80
65235;DHT22;51820;48.374;10.930;2022-11-06T01:45:25;10.40;92.10
65235;DHT22;51820;48.374;10.930;2022-11-06T01:47:55;6.70;77.30
65235;DHT22;51820;48.374;10.930;2022-11-06T01:50:23;7.50;91.40
65235;DHT22;51820;48.374;10.930;2022-11-06T01:55:24;6.70;77.00
65235;DHT22;51820;48.374;10.930;2022-11-06T01:57:54;8.50;81.00
65235;DHT22;51820;48.374;10.930;2022-11-06T02:02:52;3.80;90.10
65235;DHT22;51820;48.374;10.930;2022-11-06T02:05:22;6.70;77.90
65235;DHT22;51820;48.374;10.930;2022-11-06T02:07:51;5.20;90.40
65235;DHT22;51820;48.374;10.930;2022-11-06T02:10:20;10.60;91.40
65235;DHT22;51820;48.374;10.930;2022-11-06T02:12:57;6.60;76.00
65235;DHT22;51820;48.374;10.930;2022-11-06T02:15:35;6.60;76.20
65235;DHT22;51820;48.374;10.930;2022-11-06T02:18:17;8.40;91.10
65235;DHT22;51820;48.374;10.930;2022-11-06T02:21:04;6.50;76.40
65235;DHT22;51820;48.374;10.930;2022-11-06T02:23:49;5.00;90.70
65235;DHT22;51820;48.374;10.930;2022-11-06T02:29:09;10.20;86.50
65235;DHT22;51820;48.374;10.930;2022-11-06T02:31:40;6.40;77.10
65235;DHT22;51820;48.374;10.930;2022-11-06T02:34:11;10.60;85.00
65235;DHT22;51820;48.374;10.930;2022-11-06T02:36:44;3.60;90.40
65235;DHT22;51820;48.374;10.930;2022-11-06T02:39:16;7.20;91.30
65235;DHT22;51820;48.374;10.930;2022-11-06T02:41:47;6.30;77.10
65235;DHT22;51820;48.374;10.930;2022-11-06T02:44:21;6.20;77.10
65235;DHT22;51820;48.374;10.930;2022-11-06T02:46:51;6.20;77.70
65235;DHT22;51820;48.374;10.930;2022-11-06T02:49:24;3.50;91.00
65235;DHT22;51820;48.374;10.930;2022-11-06T02:51:55;6.10;77.70
65235;DHT22;51820;48.374;10.930;2022-11-06T02:54:27;5.10;91.20
65235;DHT22;51820;48.374;10.930;2022-11-06T02:57:02;4.30;91.20
65235;DHT22;51820;48.374;10.930;2022-11-06T02:59:38;6.00;78.20
65235;DHT22;51820;48.374;10.930;2022-11-06T03:02:11;6.00;78.30
65235;DHT22;51820;48.374;10.930;2022-11-06T03:04:46;4.70;91.70
65235;DHT22;51820;48.374;10.930;2022-11-06T03:07:19;5.00;91.80
65235;DHT22;51820;48.374;10.930;2022-11-06T03:09:49;5.20;91.70
65235;DHT22;51820;48.374;10.930;2022-11-06T03:12:20;6.10;78.10
65235;DHT22;51820;48.374;10.930;2022-11-06T03:14:57;6.10;78.00
65235;DHT22;51820;48.374;10.930;2022-11-06T03:17:34;6.10;77.90
65235;DHT22;51820;48.374;10.930;2022-11-06T03:20:15;5.60;77.40
65235;DHT22;51820;48.374;10.930;2022-11-06T03:22:49;6.10;77.70
65235;DHT22;51820;48.374;10.930;2022-11-06T03:25:22;6.10;77.70
65235;DHT22;51820;48.374;10.930;2022-11-06T03:28:00;5.20;91.30
65235;DHT22;51820;48.374;10.930;2022-11-06T03:30:31;6.10;77.90
65235;DHT22;51820;48.374;10.930;2022-11-06T03:33:08;6.10;77.90
65235;DHT22;51820;48.374;10.930;2022-11-06T03:35:41;6.10;77.70
65235;DHT22;51820;48.374;10.930;2022-11-06T03:38:15;6.10;77.90
65235;DHT22;51820;48.374;10.930;2022-11-06T03:40:48;8.00;92.10
65235;DHT22;51820;48.374;10.930;2022-11-06T03:43:21;5.00;91.30
65235;DHT22;51820;48.374;10.930;2022-11-06T03:45:52;6.10;77.90
65235;DHT22;51820;48.374;10.930;2022-11-06T03:48:29;6.10;78.30
65235;DHT22;51820;48.374;10.930;2022-11-06T03:51:02;5.90;78.00
65235;DHT22;51820;48.374;10.930;2022-11-06T03:53:36;6.00;77.70
65235;DHT22;51820;48.374;10.930;2022-11-06T03:56:11;6.00;77.90
65235;DHT22;51820;48.374;10.930;2022-11-06T03:58:43;6.00;77.60
65235;DHT22;51820;48.374;10.930;2022-11-06T04:01:16;6.00;77.40
65235;DHT22;51820;48.374;10.930;2022-11-06T04:03:50;9.60;92.20
65235;DHT22;51820;48.374;10.930;2022-11-06T04:06:22;5.20;91.20
65235;DHT22;51820;48.374;10.930;2022-11-06T04:08:53;5.90;77.60
65235;DHT22;51820;48.374;10.930;2022-11-06T04:11:43;5.90;77.30
65235;DHT22;51820;48.374;10.930;2022-11-06T04:14:32;5.80;76.90
65235;DHT22;51820;48.374;10.930;2022-11-06T04:17:06;3.20;90.60
65235;DHT22;51820;48.374;10.930;2022-11-06T04:19:39;4.30;75.80
65235;DHT22;51820;48.374;10.930;2022-11-06T04:22:20;5.80;76.70
65235;DHT22;51820;48.374;10.930;2022-11-06T04:24:59;5.80;76.70
65235;DHT22;51820;48.374;10.930;2022-11-06T04:27:59;5.80;76.30
65235;DHT22;51820;48.374;10.930;2022-11-06T04:30:34;5.70;76.10
65235;DHT22;51820;48.374;10.930;2022-11-06T04:33:13;5.70;76.20
65235;DHT22;51820;48.374;10.930;2022-11-06T04:35:53;5.70;76.20
65235;DHT22;51820;48.374;10.930;2022-11-06T04:38:28;5.60;76.10
65235;DHT22;51820;48.374;10.930;2022-11-06T04:41:10;5.50;76.40
65235;DHT22;51820;48.374;10.930;2022-11-06T04:43:42;5.50;76.90
65235;DHT22;51820;48.374;10.930;2022-11-06T04:46:18;5.50;77.10
65235;DHT22;51820;48.374;10.930;2022-11-06T04:48:49;5.40;77.00
65235;DHT22;51820;48.374;10.930;2022-11-06T04:51:21;5.40;77.10
65235;DHT22;51820;48.374;10.930;2022-11-06T04:53:53;5.40;77.30
65235;DHT22;51820;48.374;10.930;2022-11-06T04:56:25;5.40;77.40
65235;DHT22;51820;48.374;10.930;2022-11-06T05:01:32;5.30;77.60
65235;DHT22;51820;48.374;10.930;2022-11-06T05:04:02;5.30;78.00
65235;DHT22;51820;48.374;10.930;2022-11-06T05:13:55;4.30;91.90
65235;DHT22;51820;48.374;10.930;2022-11-06T05:18:52;8.80;92.70
65235;DHT22;51820;48.374;10.930;2022-11-06T05:21:24;7.10;92.30
65235;DHT22;51820;48.374;10.930;2022-11-06T05:24:10;2.60;88.80
65235;DHT22;51820;48.374;10.930;2022-11-06T05:29:11;8.20;92.50
65235;DHT22;51820;48.374;10.930;2022-11-06T05:36:38;5.10;76.20
65235;DHT22;51820;48.374;10.930;2022-11-06T05:44:03;2.50;90.80
65235;DHT22;51820;48.374;10.930;2022-11-06T05:51:44;4.80;76.80
65235;DHT22;51820;48.374;10.930;2022-11-06T05:56:43;2.50;91.30
65235;DHT22;51820;48.374;10.930;2022-11-06T06:09:08;4.80;77.60
65235;DHT22;51820;48.374;10.930;2022-11-06T06:14:07;3.90;91.70
65235;DHT22;51820;48.374;10.930;2022-11-06T06:19:04;3.20;83.60
65235;DHT22;51820;48.374;10.930;2022-11-06T06:21:35;6.70;92.50
65235;DHT22;51820;48.374;10.930;2022-11-06T06:24:04;4.70;78.30
65235;DHT22;51820;48.374;10.930;2022-11-06T06:26:34;4.70;78.30
65235;DHT22;51820;48.374;10.930;2022-11-06T06:29:02;4.70;78.30
65235;DHT22;51820;48.374;10.930;2022-11-06T06:36:28;1.60;91.60
65235;DHT22;51820;48.374;10.930;2022-11-06T06:43:54;4.80;78.70
65235;DHT22;51820;48.374;10.930;2022-11-06T06:48:51;6.60;92.70
65235;DHT22;51820;48.374;10.930;2022-11-06T06:58:47;7.90;92.80
65235;DHT22;51820;48.374;10.930;2022-11-06T07:01:19;4.80;78.30
65235;DHT22;51820;48.374;10.930;2022-11-06T07:06:19;1.60;91.20
65235;DHT22;51820;48.374;10.930;2022-11-06T07:18:43;4.70;79.40
65235;DHT22;51820;48.374;10.930;2022-11-06T07:21:11;4.70;79.70
65235;DHT22;51820;48.374;10.930;2022-11-06T07:31:08;4.80;80.50
65235;DHT22;51820;48.374;10.930;2022-11-06T07:36:11;6.90;82.60
65235;DHT22;51820;48.374;10.930;2022-11-06T07:38:41;4.90;81.50
65235;DHT22;51820;48.374;10.930;2022-11-06T07:41:13;4.90;81.70
65235;DHT22;51820;48.374;10.930;2022-11-06T07:43:42;7.00;94.40
65235;DHT22;51820;48.374;10.930;2022-11-06T07:46:11;5.00;82.00
65235;DHT22;51820;48.374;10.930;2022-11-06T07:48:41;2.50;93.20
65235;DHT22;51820;48.374;10.930;2022-11-06T07:51:26;4.50;81.90
65235;DHT22;51820;48.374;10.930;2022-11-06T08:08:53;5.20;83.20
65235;DHT22;51820;48.374;10.930;2022-11-06T08:18:52;8.70;94.70
65235;DHT22;51820;48.374;10.930;2022-11-06T08:21:20;2.90;93.30
65235;DHT22;51820;48.374;10.930;2022-11-06T08:26:19;5.50;82.20
65235;DHT22;51820;48.374;10.930;2022-11-06T08:38:46;5.60;82.00
65235;DHT22;51820;48.374;10.930;2022-11-06T08:41:27;5.60;82.30
65235;DHT22;51820;48.374;10.930;2022-11-06T08:48:58;6.40;83.30
65235;DHT22;51820;48.374;10.930;2022-11-06T08:53:57;3.70;93.50
65235;DHT22;51820;48.374;10.930;2022-11-06T08:58:55;5.70;83.30
65235;DHT22;51820;48.374;10.930;2022-11-06T09:03:52;7.30;86.80
65235;DHT22;51820;48.374;10.930;2022-11-06T09:13:50;4.20;94.20
65235;DHT22;51820;48.374;10.930;2022-11-06T09:16:19;5.10;94.50
65235;DHT22;51820;48.374;10.930;2022-11-06T09:21:16;6.00;94.80
65235;DHT22;51820;48.374;10.930;2022-11-06T09:28:42;10.20;95.70
65235;DHT22;51820;48.374;10.930;2022-11-06T09:31:10;9.90;92.90
65235;DHT22;51820;48.374;10.930;2022-11-06T09:33:40;6.70;84.80
65235;DHT22;51820;48.374;10.930;2022-11-06T09:36:21;6.80;85.10
65235;DHT22;51820;48.374;10.930;2022-11-06T09:41:22;5.70;94.30
65235;DHT22;51820;48.374;10.930;2022-11-06T09:44:09;7.00;84.70
65235;DHT22;51820;48.374;10.930;2022-11-06T09:46:41;10.70;95.40
65235;DHT22;51820;48.374;10.930;2022-11-06T09:49:17;7.10;84.60
65235;DHT22;51820;48.374;10.930;2022-11-06T09:51:52;7.20;84.30
65235;DHT22;51820;48.374;10.930;2022-11-06T09:54:26;5.90;93.80
65235;DHT22;51820;48.374;10.930;2022-11-06T09:56:59;7.30;84.00
65235;DHT22;51820;48.374;10.930;2022-11-06T09:59:37;7.40;84.20
65235;DHT22;51820;48.374;10.930;2022-11-06T10:02:20;7.40;84.30
65235;DHT22;51820;48.374;10.930;2022-11-06T10:05:00;7.50;83.60
65235;DHT22;51820;48.374;10.930;2022-11-06T10:07:33;7.60;82.60
65235;DHT22;51820;48.374;10.930;2022-11-06T10:10:05;6.50;93.20
65235;DHT22;51820;48.374;10.930;2022-11-06T10:12:41;5.80;93.10
65235;DHT22;51820;48.374;10.930;2022-11-06T10:15:21;7.80;82.60
65235;DHT22;51820;48.374;10.930;2022-11-06T10:17:56;7.90;82.00
65235;DHT22;51820;48.374;10.930;2022-11-06T10:20:44;8.00;81.70
65235;DHT22;51820;48.374;10.930;2022-11-06T10:23:19;8.00;81.50
65235;DHT22;51820;48.374;10.930;2022-11-06T10:26:01;7.00;92.10
65235;DHT22;51820;48.374;10.930;2022-11-06T10:31:40;8.20;80.40
65235;DHT22;51820;48.374;10.930;2022-11-06T10:34:15;8.20;80.60
65235;DHT22;51820;48.374;10.930;2022-11-06T10:36:53;7.50;92.00
65235;DHT22;51820;48.374;10.930;2022-11-06T10:39:28;6.30;91.30
65235;DHT22;51820;48.374;10.930;2022-11-06T10:42:00;7.80;91.70
65235;DHT22;51820;48.374;10.930;2022-11-06T10:44:37;8.40;80.00
65235;DHT22;51820;48.374;10.930;2022-11-06T10:47:14;8.40;79.70
65235;DHT22;51820;48.374;10.930;2022-11-06T10:49:45;11.30;92.50
65235;DHT22;51820;48.374;10.930;2022-11-06T10:52:37;8.90;91.70
65235;DHT22;51820;48.374;10.930;2022-11-06T10:58:26;5.70;90.80
65235;DHT22;51820;48.374;10.930;2022-11-06T11:00:59;7.50;91.20
65235;DHT22;51820;48.374;10.930;2022-11-06T11:03:33;8.70;78.30
65235;DHT22;51820;48.374;10.930;2022-11-06T11:06:05;8.80;77.70
65235;DHT22;51820;48.374;10.930;2022-11-06T11:08:39;8.80;78.00
65235;DHT22;51820;48.374;10.930;2022-11-06T11:11:22;8.90;78.60
65235;DHT22;51820;48.374;10.930;2022-11-06T11:14:13;6.40;90.50
65235;DHT22;51820;48.374;10.930;2022-11-06T11:16:43;6.10;90.60
65235;DHT22;51820;48.374;10.930;2022-11-06T11:19:25;6.50;90.40
65235;DHT22;51820;48.374;10.930;2022-11-06T11:21:59;9.40;77.50
65235;DHT22;51820;48.374;10.930;2022-11-06T11:24:32;9.60;76.70
65235;DHT22;51820;48.374;10.930;2022-11-06T11:27:16;9.60;75.80
65235;DHT22;51820;48.374;10.930;2022-11-06T11:32:20;8.30;87.90
65235;DHT22;51820;48.374;10.930;2022-11-06T11:34:52;10.00;75.40
65235;DHT22;51820;48.374;10.930;2022-11-06T11:37:26;10.00;75.20
65235;DHT22;51820;48.374;10.930;2022-11-06T11:40:18;10.10;74.20
65235;DHT22;51820;48.374;10.930;2022-11-06T11:45:18;8.20;86.40
65235;DHT22;51820;48.374;10.930;2022-11-06T11:47:47;10.20;74.80
65235;DHT22;51820;48.374;10.930;2022-11-06T11:50:29;13.10;89.40
65235;DHT22;51820;48.374;10.930;2022-11-06T11:53:02;10.40;74.20
65235;DHT22;51820;48.374;10.930;2022-11-06T11:55:43;9.30;86.30
65235;DHT22;51820;48.374;10.930;2022-11-06T11:58:21;10.30;86.70
65235;DHT22;51820;48.374;10.930;2022-11-06T12:00:52;10.50;73.60
65235;DHT22;51820;48.374;10.930;2022-11-06T12:03:21;10.50;73.60
65235;DHT22;51820;48.374;10.930;2022-11-06T12:05:51;8.80;85.30
65235;DHT22;51820;48.374;10.930;2022-11-06T12:08:23;10.50;73.10
65235;DHT22;51820;48.374;10.930;2022-11-06T12:11:00;8.10;84.60
65235;DHT22;51820;48.374;10.930;2022-11-06T12:15:59;10.60;73.10
65235;DHT22;51820;48.374;10.930;2022-11-06T12:18:31;10.80;73.20
65235;DHT22;51820;48.374;10.930;2022-11-06T12:21:03;10.50;86.40
65235;DHT22;51820;48.374;10.930;2022-11-06T12:23:37;12.40;87.90
65235;DHT22;51820;48.374;10.930;2022-11-06T12:26:14;9.70;74.40
65235;DHT22;51820;48.374;10.930;2022-11-06T12:28:47;9.40;84.20
65235;DHT22;51820;48.374;10.930;2022-11-06T12:31:23;9.20;83.60
65235;DHT22;51820;48.374;10.930;2022-11-06T12:33:55;14.10;86.40
65235;DHT22;51820;48.374;10.930;2022-11-06T12:36:35;11.30;71.80
65235;DHT22;51820;48.374;10.930;2022-11-06T12:39:12;10.10;83.50
65235;DHT22;51820;48.374;10.930;2022-11-06T12:41:45;11.40;73.70
65235;DHT22;51820;48.374;10.930;2022-11-06T12:44:18;11.20;83.80
65235;DHT22;51820;48.374;10.930;2022-11-06T12:46:53;11.50;70.80
65235;DHT22;51820;48.374;10.930;2022-11-06T12:49:55;10.90;82.90
65235;DHT22;51820;48.374;10.930;2022-11-06T12:52:42;11.20;82.90
65235;DHT22;51820;48.374;10.930;2022-11-06T12:55:18;11.50;70.40
65235;DHT22;51820;48.374;10.930;2022-11-06T12:58:14;10.00;82.40
65235;DHT22;51820;48.374;10.930;2022-11-06T13:00:57;9.50;82.10
65235;DHT22;51820;48.374;10.930;2022-11-06T13:07:32;10.40;82.90
65235;DHT22;51820;48.374;10.930;2022-11-06T13:10:23;10.40;83.20
65235;DHT22;51820;48.374;10.930;2022-11-06T13:13:26;11.70;70.30
65235;DHT22;51820;48.374;10.930;2022-11-06T13:16:12;11.80;70.10
65235;DHT22;51820;48.374;10.930;2022-11-06T13:18:45;11.80;69.80
65235;DHT22;51820;48.374;10.930;2022-11-06T13:21:32;11.90;70.20
65235;DHT22;51820;48.374;10.930;2022-11-06T13:24:19;11.30;82.70
65235;DHT22;51820;48.374;10.930;2022-11-06T13:26:58;12.00;70.00
65235;DHT22;51820;48.374;10.930;2022-11-06T13:29:31;12.00;70.00
65235;DHT22;51820;48.374;10.930;2022-11-06T13:32:02;12.00;69.50
65235;DHT22;51820;48.374;10.930;2022-11-06T13:34:35;10.10;80.80
65235;DHT22;51820;48.374;10.930;2022-11-06T13:37:06;12.00;69.30
65235;DHT22;51820;48.374;10.930;2022-11-06T13:39:41;12.00;69.10
65235;DHT22;51820;48.374;10.930;2022-11-06T13:42:21;10.30;80.50
65235;DHT22;51820;48.374;10.930;2022-11-06T13:44:54;10.80;80.90
65235;DHT22;51820;48.374;10.930;2022-11-06T13:47:30;12.10;68.70
65235;DHT22;51820;48.374;10.930;2022-11-06T13:50:05;12.00;68.80
65235;DHT22;51820;48.374;10.930;2022-11-06T13:52:40;12.00;68.70
65235;DHT22;51820;48.374;10.930;2022-11-06T13:55:16;11.00;80.60
65235;DHT22;51820;48.374;10.930;2022-11-06T13:58:12;12.00;68.50
65235;DHT22;51820;48.374;10.930;2022-11-06T14:00:55;12.00;67.80
65235;DHT22;51820;48.374;10.930;2022-11-06T14:06:45;11.50;80.00
65235;DHT22;51820;48.374;10.930;2022-11-06T14:09:23;11.90;67.60
65235;DHT22;51820;48.374;10.930;2022-11-06T14:12:01;11.90;67.70
65235;DHT22;51820;48.374;10.930;2022-11-06T14:14:33;10.60;80.00
65235;DHT22;51820;48.374;10.930;2022-11-06T14:17:11;11.90;68.20
65235;DHT22;51820;48.374;10.930;2022-11-06T14:19:41;14.40;82.20
65235;DHT22;51820;48.374;10.930;2022-11-06T14:22:28;11.80;80.80
65235;DHT22;51820;48.374;10.930;2022-11-06T14:24:56;11.70;80.60
65235;DHT22;51820;48.374;10.930;2022-11-06T14:28:03;11.20;80.50
65235;DHT22;51820;48.374;10.930;2022-11-06T14:30:41;10.20;79.90
65235;DHT22;51820;48.374;10.930;2022-11-06T14:34:02;11.30;80.80
65235;DHT22;51820;48.374;10.930;2022-11-06T14:36:34;11.60;68.30
65235;DHT22;51820;48.374;10.930;2022-11-06T14:39:08;11.60;68.40
65235;DHT22;51820;48.374;10.930;2022-11-06T14:41:52;11.50;68.60
65235;DHT22;51820;48.374;10.930;2022-11-06T14:44:42;11.50;68.40
65235;DHT22;51820;48.374;10.930;2022-11-06T14:47:33;11.10;81.10
65235;DHT22;51820;48.374;10.930;2022-11-06T14:50:07;11.10;81.20
65235;DHT22;51820;48.374;10.930;2022-11-06T14:52:48;11.40;81.20
65235;DHT22;51820;48.374;10.930;2022-11-06T14:55:25;14.50;82.70
65235;DHT22;51820;48.374;10.930;2022-11-06T14:57:58;11.40;68.30
65235;DHT22;51820;48.374;10.930;2022-11-06T15:00:49;11.40;68.60
65235;DHT22;51820;48.374;10.930;2022-11-06T15:03:29;14.00;82.50
65235;DHT22;51820;48.374;10.930;2022-11-06T15:06:35;11.30;68.00
65235;DHT22;51820;48.374;10.930;2022-11-06T15:09:12;11.30;68.10
65235;DHT22;51820;48.374;10.930;2022-11-06T15:12:04;9.00;80.00
65235;DHT22;51820;48.374;10.930;2022-11-06T15:14:55;9.40;80.30
65235;DHT22;51820;48.374;10.930;2022-11-06T15:17:36;11.30;68.40
65235;DHT22;51820;48.374;10.930;2022-11-06T15:20:18;8.90;80.40
65235;DHT22;51820;48.374;10.930;2022-11-06T15:23:02;11.20;68.70
65235;DHT22;51820;48.374;10.930;2022-11-06T15:25:32;10.60;81.30
65235;DHT22;51820;48.374;10.930;2022-11-06T15:28:04;11.10;69.10
65235;DHT22;51820;48.374;10.930;2022-11-06T15:30:41;9.00;80.80
65235;DHT22;51820;48.374;10.930;2022-11-06T15:33:17;11.00;69.20
65235;DHT22;51820;48.374;10.930;2022-11-06T15:38:19;11.00;69.60
65235;DHT22;51820;48.374;10.930;2022-11-06T15:40:52;9.60;82.30
65235;DHT22;51820;48.374;10.930;2022-11-06T15:43:32;10.90;69.60
65235;DHT22;51820;48.374;10.930;2022-11-06T15:46:03;10.90;69.60
65235;DHT22;51820;48.374;10.930;2022-11-06T15:48:33;11.50;83.30
65235;DHT22;51820;48.374;10.930;2022-11-06T15:51:03;10.80;69.90
65235;DHT22;51820;48.374;10.930;2022-11-06T15:53:53;10.70;70.00
65235;DHT22;51820;48.374;10.930;2022-11-06T15:56:34;10.60;70.20
65235;DHT22;51820;48.374;10.930;2022-11-06T15:59:08;10.60;70.40
65235;DHT22;51820;48.374;10.930;2022-11-06T16:01:37;10.50;70.90
65235;DHT22;51820;48.374;10.930;2022-11-06T16:04:10;10.50;70.80
65235;DHT22;51820;48.374;10.930;2022-11-06T16:06:42;9.60;83.60
65235;DHT22;51820;48.374;10.930;2022-11-06T16:09:16;10.40;71.00
65235;DHT22;51820;48.374;10.930;2022-11-06T16:11:46;10.30;71.40
65235;DHT22;51820;48.374;10.930;2022-11-06T16:14:15;9.00;84.10
65235;DHT22;51820;48.374;10.930;2022-11-06T16:16:47;8.60;84.10
65235;DHT22;51820;48.374;10.930;2022-11-06T16:19:24;9.70;85.00
65235;DHT22;51820;48.374;10.930;2022-11-06T16:21:56;8.00;84.70
65235;DHT22;51820;48.374;10.930;2022-11-06T16:24:30;9.70;85.40
65235;DHT22;51820;48.374;10.930;2022-11-06T16:29:31;10.20;72.30
65235;DHT22;51820;48.374;10.930;2022-11-06T16:32:02;10.10;72.40
65235;DHT22;51820;48.374;10.930;2022-11-06T16:34:37;12.30;87.10
65235;DHT22;51820;48.374;10.930;2022-11-06T16:37:11;7.50;84.90
65235;DHT22;51820;48.374;10.930;2022-11-06T16:40:02;8.70;85.50
65235;DHT22;51820;48.374;10.930;2022-11-06T16:42:32;10.00;72.90
65235;DHT22;51820;48.374;10.930;2022-11-06T16:45:13;10.00;73.00
65235;DHT22;51820;48.374;10.930;2022-11-06T16:51:01;10.00;73.10
65235;DHT22;51820;48.374;10.930;2022-11-06T16:53:32;7.30;85.80
65235;DHT22;51820;48.374;10.930;2022-11-06T16:56:06;11.80;88.00
65235;DHT22;51820;48.374;10.930;2022-11-06T16:58:45;9.90;73.20
65235;DHT22;51820;48.374;10.930;2022-11-06T17:01:18;13.20;88.90
65235;DHT22;51820;48.374;10.930;2022-11-06T17:04:05;8.10;86.20
65235;DHT22;51820;48.374;10.930;2022-11-06T17:06:43;8.90;86.40
65235;DHT22;51820;48.374;10.930;2022-11-06T17:09:26;9.90;73.30
65235;DHT22;51820;48.374;10.930;2022-11-06T17:11:58;9.90;73.20
65235;DHT22;51820;48.374;10.930;2022-11-06T17:14:27;8.60;86.10
65235;DHT22;51820;48.374;10.930;2022-11-06T17:16:58;9.80;73.50
65235;DHT22;51820;48.374;10.930;2022-11-06T17:19:28;9.90;73.40
65235;DHT22;51820;48.374;10.930;2022-11-06T17:24:27;10.10;87.20
65235;DHT22;51820;48.374;10.930;2022-11-06T17:27:07;9.90;73.50
65235;DHT22;51820;48.374;10.930;2022-11-06T17:34:36;11.40;87.80
65235;DHT22;51820;48.374;10.930;2022-11-06T17:42:20;9.80;86.90
65235;DHT22;51820;48.374;10.930;2022-11-06T17:59:51;9.80;74.50
65235;DHT22;51820;48.374;10.930;2022-11-06T18:10:07;9.50;79.80
65235;DHT22;51820;48.374;10.930;2022-11-06T18:12:37;8.50;87.30
65235;DHT22;51820;48.374;10.930;2022-11-06T18:15:07;7.20;87.10
65235;DHT22;51820;48.374;10.930;2022-11-06T18:20:05;9.60;87.90
65235;DHT22;51820;48.374;10.930;2022-11-06T18:25:02;13.40;90.20
65235;DHT22;51820;48.374;10.930;2022-11-06T18:32:29;9.30;88.50
65235;DHT22;51820;48.374;10.930;2022-11-06T18:34:57;8.00;87.50
65235;DHT22;51820;48.374;10.930;2022-11-06T18:37:26;8.90;87.80
65235;DHT22;51820;48.374;10.930;2022-11-06T18:42:23;9.30;88.30
65235;DHT22;51820;48.374;10.930;2022-11-06T18:47:20;8.30;87.60
65235;DHT22;51820;48.374;10.930;2022-11-06T18:49:50;7.90;87.30
65235;DHT22;51820;48.374;10.930;2022-11-06T18:52:18;8.20;87.50
65235;DHT22;51820;48.374;10.930;2022-11-06T18:55:07;13.60;86.90
65235;DHT22;51820;48.374;10.930;2022-11-06T18:57:40;9.60;74.80
65235;DHT22;51820;48.374;10.930;2022-11-06T19:00:09;7.40;88.00
65235;DHT22;51820;48.374;10.930;2022-11-06T19:02:39;6.80;87.20
65235;DHT22;51820;48.374;10.930;2022-11-06T19:05:09;9.70;74.70
65235;DHT22;51820;48.374;10.930;2022-11-06T19:07:40;9.60;74.50
65235;DHT22;51820;48.374;10.930;2022-11-06T19:20:17;9.60;74.10
65235;DHT22;51820;48.374;10.930;2022-11-06T19:22:49;9.60;75.00
65235;DHT22;51820;48.374;10.930;2022-11-06T19:25:18;8.30;87.40
65235;DHT22;51820;48.374;10.930;2022-11-06T19:35:13;9.50;73.50
65235;DHT22;51820;48.374;10.930;2022-11-06T19:40:10;10.10;87.00
65235;DHT22;51820;48.374;10.930;2022-11-06T19:47:36;13.60;88.70
65235;DHT22;51820;48.374;10.930;2022-11-06T19:50:06;12.10;87.80
65235;DHT22;51820;48.374;10.930;2022-11-06T19:52:35;8.60;85.00
65235;DHT22;51820;48.374;10.930;2022-11-06T19:57:53;8.30;84.20
65235;DHT22;51820;48.374;10.930;2022-11-06T20:07:50;9.40;81.90
65235;DHT22;51820;48.374;10.930;2022-11-06T20:10:18;9.40;82.50
65235;DHT22;51820;48.374;10.930;2022-11-06T20:12:47;7.80;81.50
65235;DHT22;51820;48.374;10.930;2022-11-06T20:15:15;8.20;81.70
65235;DHT22;51820;48.374;10.930;2022-11-06T20:17:49;8.80;81.40
65235;DHT22;51820;48.374;10.930;2022-11-06T20:20:23;9.00;81.10
65235;DHT22;51820;48.374;10.930;2022-11-06T20:22:53;9.50;67.30
65235;DHT22;51820;48.374;10.930;2022-11-06T20:25:37;9.60;67.70
65235;DHT22;51820;48.374;10.930;2022-11-06T20:38:06;12.30;81.70
65235;DHT22;51820;48.374;10.930;2022-11-06T20:43:03;12.40;81.50
65235;DHT22;51820;48.374;10.930;2022-11-06T20:50:31;8.70;79.10
65235;DHT22;51820;48.374;10.930;2022-11-06T20:53:00;8.10;76.60
65235;DHT22;51820;48.374;10.930;2022-11-06T20:55:31;9.60;65.40
65235;DHT22;51820;48.374;10.930;2022-11-06T21:12:54;11.40;79.60
65235;DHT22;51820;48.374;10.930;2022-11-06T21:17:53;8.70;77.50
65235;DHT22;51820;48.374;10.930;2022-11-06T21:22:50;6.80;76.90
65235;DHT22;51820;48.374;10.930;2022-11-06T21:30:16;8.60;77.00
65235;DHT22;51820;48.374;10.930;2022-11-06T21:32:44;8.10;76.40
65235;DHT22;51820;48.374;10.930;2022-11-06T21:35:13;11.30;78.00
65235;DHT22;51820;48.374;10.930;2022-11-06T21:37:41;11.30;78.20
65235;DHT22;51820;48.374;10.930;2022-11-06T21:40:10;14.10;78.50
65235;DHT22;51820;48.374;10.930;2022-11-06T21:42:43;9.90;61.90
65235;DHT22;51820;48.374;10.930;2022-11-06T21:47:42;8.60;75.30
65235;DHT22;51820;48.374;10.930;2022-11-06T22:00:56;7.90;76.60
65235;DHT22;51820;48.374;10.930;2022-11-06T22:03:25;10.20;78.50
65235;DHT22;51820;48.374;10.930;2022-11-06T22:13:24;9.50;79.90